METAR Reports From Nearby Airports

 

KLUD - Decatur, Texas, USA
Distance from Wildwood: ESE 5mi, 8km
Dati ricevuti: Nov 19, 2019 10:35pm
Sereno
Sereno
 Vento da SE
Vento: SE 8 mph , 13 km/h
Temperatura: 63°F , 17°C
P.to Rugiada: 48°F , 9°C
Umidità: 59%
Barometro: 29.91 inHg , 1012.9 hPa
Clouds: Sereno
Visibility: 7 miles , 11 km
2019/11/20 04:35 KLUD 200435Z AUTO 14007KT 7SM CLR 17/09 A2991 RMK AO2 T01710089
KXBP - Bridgeport, Texas, USA
Distance from Wildwood: OSO 11mi, 18km
Dati ricevuti: Nov 19, 2019 10:15pm
Sereno
Sereno
 Vento da SSE
Vento: SSE 10 mph , 17 km/h
Temperatura: 64°F , 18°C
P.to Rugiada: 48°F , 9°C
Umidità: 56%
Barometro: 29.91 inHg , 1012.9 hPa
Clouds: Sereno
Visibility: 10 miles , 16 km
2019/11/20 04:15 KXBP 200415Z AUTO 15009KT 10SM CLR 18/09 A2991 RMK AO2 T01780088
 
K0F2 - Bowie, Texas, USA
Distance from Wildwood: NNO 24mi, 39km
Dati ricevuti: Nov 19, 2019 10:35pm
Sereno
Sereno
 Vento da SSE
Vento: SSE 10 mph , 17 km/h
Temperatura: 66°F , 19°C
P.to Rugiada: 52°F , 11°C
Umidità: 60%
Barometro: 29.90 inHg , 1012.5 hPa
Clouds: Sereno
Visibility: 10 miles , 16 km
2019/11/20 04:35 K0F2 200435Z AUTO 16009KT 10SM CLR 19/11 A2990 RMK AO2 T01920105
KDTO - Denton, Texas, USA
Distance from Wildwood: E 27mi, 44km
Dati ricevuti: Nov 19, 2019 9:53pm
Sereno
Sereno
 Vento da SSE
Vento: SSE 10 mph , 17 km/h
Temperatura: 64°F , 18°C
P.to Rugiada: 46°F , 8°C
Umidità: 52%
Barometro: 29.92 inHg , 1013.2 hPa
Clouds: Sereno
Visibility: 10 miles , 16 km
2019/11/20 03:53 KDTO 200353Z AUTO 16009KT 10SM CLR 18/08 A2992 RMK AO2 SLP127 T01780083
 
KAFW - Ft Worth/Allianc, Texas, USA
Distance from Wildwood: SE 29mi, 46km
Dati ricevuti: Nov 19, 2019 9:53pm
Few Clouds
Few Clouds
 Vento da SSE
Vento: SSE 15 mph , 24 km/h
Temperatura: 66°F , 19°C
P.to Rugiada: 48°F , 9°C
Umidità: 52%
Barometro: 29.91 inHg , 1012.9 hPa
Clouds: Few Clouds
Visibility: 10 miles , 16 km
Cloud details: Few Clouds 30000 ft
2019/11/20 03:53 KAFW 200353Z 16013KT 10SM FEW300 19/09 A2991 RMK AO2 SLP123 T01890089
KFTW - Fort Worth, Texas, USA
Distance from Wildwood: SSE 34mi, 55km
Dati ricevuti: Nov 19, 2019 9:53pm
Sereno
Sereno
 Vento da SSE
Vento: SSE 14 mph , 22 km/h
Temperatura: 64°F , 18°C
P.to Rugiada: 50°F , 10°C
Umidità: 60%
Barometro: 29.91 inHg , 1012.9 hPa
Clouds: Sereno
Visibility: 10 miles , 16 km
2019/11/20 03:53 KFTW 200353Z 16012KT 10SM CLR 18/10 A2991 RMK AO2 SLP123 T01780100
 
KNFW - Fort Worth Nas, Texas, USA
Distance from Wildwood: SSE 36mi, 58km
Dati ricevuti: Nov 19, 2019 9:52pm
Few Clouds
Few Clouds
 Vento da SSE
Vento: SSE 13 mph , 20 km/h
Temperatura: 68°F , 20°C
P.to Rugiada: 48°F , 9°C
Umidità: 49%
Barometro: 29.91 inHg , 1012.9 hPa
Clouds: Few Clouds
Visibility: 10 miles , 16 km
Cloud details: Few Clouds 25000 ft
2019/11/20 03:52 KNFW 200352Z 16011KT 10SM FEW250 20/09 A2991 RMK AO2 SLP114 T01940089 VISNO N $
KGLE - Gainesville, Texas, USA
Distance from Wildwood: NE 38mi, 61km
Dati ricevuti: Nov 19, 2019 10:35pm
Sereno
Sereno
 Vento da SSE
Vento: SSE 6 mph , 9 km/h
Temperatura: 55°F , 13°C
P.to Rugiada: 45°F , 7°C
Umidità: 67%
Barometro: 29.93 inHg , 1013.5 hPa
Clouds: Sereno
Visibility: 10 miles , 16 km
2019/11/20 04:35 KGLE 200435Z AUTO 16005KT 10SM CLR 13/07 A2993 RMK AO2 T01340065 PWINO
 
KMWL - Mineral Wells, Texas, USA
Distance from Wildwood: SO 41mi, 65km
Dati ricevuti: Nov 19, 2019 9:53pm
Sereno
Sereno
 Vento da SSE
Vento: SSE 12 mph , 19 km/h
Temperatura: 63°F , 17°C
P.to Rugiada: 46°F , 8°C
Umidità: 56%
Barometro: 29.88 inHg , 1011.9 hPa
Clouds: Sereno
Visibility: 10 miles , 16 km
2019/11/20 03:53 KMWL 200353Z AUTO 15010KT 10SM CLR 17/08 A2988 RMK AO2 SLP112 T01670083
KDFW - Dallas/Ft Worth, Texas, USA
Distance from Wildwood: ESE 45mi, 73km
Dati ricevuti: Nov 19, 2019 9:53pm
Sereno
Sereno
 Vento da S
Vento: S 8 mph , 13 km/h
Temperatura: 64°F , 18°C
P.to Rugiada: 48°F , 9°C
Umidità: 56%
Barometro: 29.91 inHg , 1012.9 hPa
Clouds: Sereno
Visibility: 10 miles , 16 km
2019/11/20 03:53 KDFW 200353Z 17007KT 10SM CLR 18/09 A2991 RMK AO2 SLP124 T01830094